createdAt,value
2018-02-12T07:12:54.038Z,97242.08
2018-02-12T07:13:59.017Z,97251.10
2018-02-12T07:15:03.741Z,97246.67
2018-02-12T07:16:08.457Z,97228.50
2018-02-12T07:17:13.188Z,97252.52
2018-02-12T07:18:18.477Z,97250.28
2018-02-12T07:19:23.150Z,97171.83
2018-02-12T07:20:27.866Z,97134.13
2018-02-12T07:21:33.099Z,97251.09
2018-02-12T07:22:37.781Z,97251.56
2018-02-12T07:23:42.784Z,97254.06
2018-02-12T07:24:47.746Z,97215.86
2018-02-12T07:25:52.481Z,97251.74
2018-02-12T07:26:58.078Z,97252.92
2018-02-12T07:28:02.809Z,97251.05
2018-02-12T07:29:07.552Z,97253.39
2018-02-12T07:30:12.309Z,97252.02
2018-02-12T07:31:17.479Z,97256.59
2018-02-12T07:32:22.119Z,97256.38
2018-02-12T07:33:26.789Z,97226.10
2018-02-12T07:34:31.480Z,97230.37
2018-02-12T07:35:36.204Z,97260.56
2018-02-12T07:36:41.780Z,97261.81
2018-02-12T07:37:47.472Z,97271.97
2018-02-12T07:38:52.193Z,97272.58
2018-02-12T07:39:57.361Z,97275.09
2018-02-12T07:41:02.368Z,97277.36
2018-02-12T07:42:07.108Z,97276.50
2018-02-12T07:43:11.800Z,97274.45
2018-02-12T07:44:16.989Z,97274.70
2018-02-12T07:45:21.679Z,97282.67
2018-02-12T07:46:26.435Z,97285.61
2018-02-12T07:47:31.174Z,97282.20
2018-02-12T07:48:35.797Z,97287.00
2018-02-12T07:49:40.429Z,97231.67
2018-02-12T07:50:45.694Z,97286.58
2018-02-12T07:51:50.410Z,97290.09
2018-02-12T07:52:55.030Z,97130.06
2018-02-12T07:53:59.641Z,97295.58
2018-02-12T07:55:04.537Z,97296.66
2018-02-12T07:56:09.275Z,97294.10
2018-02-12T07:57:14.493Z,97299.95
2018-02-12T07:58:19.214Z,97304.27
2018-02-12T07:59:24.896Z,97304.55
2018-02-12T08:00:29.594Z,97307.53
2018-02-12T08:01:34.286Z,97303.13
2018-02-12T08:02:38.986Z,97305.30
2018-02-12T08:03:44.656Z,97207.30
2018-02-12T08:04:49.367Z,97310.14
2018-02-12T08:05:54.228Z,97238.41
2018-02-12T08:06:58.971Z,97317.83
2018-02-12T08:08:03.680Z,97312.55
2018-02-12T08:09:08.397Z,97323.72
2018-02-12T08:10:13.696Z,97315.64
2018-02-12T08:11:18.880Z,97318.72
2018-02-12T08:12:23.631Z,97322.31
2018-02-12T08:13:28.442Z,97118.91
2018-02-12T08:14:33.205Z,97324.54
2018-02-12T08:15:38.109Z,97327.44
2018-02-12T08:16:43.217Z,97334.63
2018-02-12T08:17:47.983Z,97327.63
2018-02-12T08:18:52.772Z,97330.71
2018-02-12T08:19:58.690Z,97227.09
2018-02-12T08:21:05.029Z,97328.45
2018-02-12T08:22:10.600Z,97325.36
2018-02-12T08:23:17.551Z,97317.91
2018-02-12T08:24:24.260Z,97328.92
2018-02-12T08:25:38.913Z,97330.25
2018-02-12T08:26:49.831Z,97329.74
2018-02-12T08:27:58.710Z,97335.38
2018-02-12T08:29:04.239Z,97335.45
2018-02-12T08:30:09.571Z,97338.89
2018-02-12T08:31:14.490Z,97309.45
2018-02-12T08:32:19.336Z,97346.85
2018-02-12T08:33:24.097Z,97355.36
2018-02-12T08:34:28.953Z,97358.73
2018-02-12T08:35:33.990Z,97208.67
2018-02-12T08:36:38.738Z,97350.98
2018-02-12T08:37:43.443Z,97346.69
2018-02-12T08:38:48.171Z,97353.25
2018-02-12T08:39:52.872Z,97140.86
2018-02-12T08:40:58.611Z,97356.64
2018-02-12T08:42:03.779Z,97458.16
2018-02-12T08:43:08.463Z,97149.06
2018-02-12T08:44:13.246Z,97101.94
2018-02-12T08:45:17.967Z,97370.61
2018-02-12T08:46:22.720Z,97369.47
2018-02-12T08:47:27.571Z,97367.86
2018-02-12T08:48:32.676Z,97362.19
2018-02-12T08:49:37.383Z,97370.16
2018-02-12T08:50:42.152Z,97376.14
2018-02-12T08:51:46.923Z,97372.05
2018-02-12T08:52:51.664Z,97162.89
2018-02-12T08:53:56.373Z,97254.73
2018-02-12T08:55:01.542Z,97377.04
2018-02-12T08:56:06.349Z,97375.75
2018-02-12T08:57:11.378Z,97379.27
2018-02-12T08:58:16.134Z,97380.88
2018-02-12T08:59:20.970Z,97390.42
2018-02-12T09:00:25.845Z,97382.10
2018-02-12T09:01:31.451Z,97380.52
2018-02-12T09:02:36.374Z,97386.69
2018-02-12T09:03:41.184Z,97299.20
2018-02-12T09:04:46.174Z,97395.92
2018-02-12T09:05:51.295Z,97382.20
2018-02-12T09:06:56.385Z,97358.85
2018-02-12T09:08:01.294Z,97390.83
2018-02-12T09:09:06.151Z,97397.49
2018-02-12T09:10:11.285Z,97495.26
2018-02-12T09:11:16.031Z,97306.55
2018-02-12T09:12:20.776Z,97272.37
2018-02-12T09:13:25.995Z,97163.64
2018-02-12T09:14:30.712Z,97404.28
2018-02-12T09:15:35.594Z,97400.26
2018-02-12T09:16:40.448Z,97411.25
2018-02-12T09:17:45.597Z,96985.59
2018-02-12T09:18:50.648Z,97413.11
2018-02-12T09:19:55.965Z,97411.86
2018-02-12T09:21:00.769Z,97415.59
2018-02-12T15:22:52.519Z,97971.80
2018-02-12T15:23:57.350Z,97965.87
2018-02-12T15:25:02.288Z,97963.58
2018-02-12T15:26:07.548Z,97967.31
2018-02-12T15:27:13.466Z,97972.56
2018-02-12T15:28:18.453Z,97969.95
2018-02-12T15:29:24.562Z,97964.77
2018-02-12T15:30:31.688Z,97969.54
2018-02-12T15:31:36.727Z,97969.50
2018-02-12T15:32:42.154Z,97971.44
2018-02-12T15:33:47.237Z,97970.72
2018-02-12T15:34:55.355Z,97973.75
2018-02-12T15:36:00.177Z,97977.67
2018-02-12T15:37:05.088Z,97972.80
2018-02-12T15:38:10.012Z,97965.81
2018-02-12T15:39:14.846Z,97910.27
2018-02-12T15:40:21.404Z,97974.14
2018-02-12T15:41:33.149Z,97982.00
2018-02-12T15:42:39.385Z,97979.53
2018-02-12T15:43:44.483Z,97982.58
2018-02-12T15:44:50.255Z,97822.25
2018-02-12T15:45:55.650Z,97979.95
2018-02-12T15:47:02.787Z,97984.70
2018-02-12T15:48:07.593Z,97979.78
2018-02-12T15:49:13.253Z,97985.62
2018-02-12T15:50:18.501Z,97983.39
2018-02-12T15:51:26.679Z,97984.31
2018-02-12T15:52:33.593Z,97980.00
2018-02-12T15:53:40.618Z,97977.31
2018-02-12T15:54:46.533Z,97983.05
2018-02-12T15:55:52.890Z,97985.41
2018-02-12T15:56:57.886Z,97986.00
2018-02-12T15:58:03.079Z,97887.55
2018-02-12T15:59:07.935Z,97986.83
2018-02-12T16:00:12.891Z,97985.76
2018-02-12T16:01:17.690Z,97939.06
2018-02-12T16:02:23.553Z,97984.50
2018-02-12T16:03:30.227Z,97986.34
2018-02-12T16:04:39.219Z,97992.20
2018-02-12T16:05:44.006Z,97995.01
2018-02-12T16:06:48.829Z,97847.89
2018-02-12T16:07:53.526Z,98002.98
2018-02-12T16:08:59.123Z,98003.74
2018-02-12T16:10:04.940Z,98002.38
2018-02-12T16:11:10.244Z,98003.63
2018-02-12T16:12:15.046Z,98017.52
2018-02-12T16:47:34.608Z,98059.16
2018-02-12T16:48:41.339Z,98059.14
2018-02-12T16:49:52.870Z,98059.61
2018-02-12T16:50:58.584Z,98065.41
2018-02-12T16:52:05.828Z,97948.70
2018-02-12T16:53:11.688Z,98063.11
2018-02-12T16:54:16.748Z,98145.12
2018-02-12T16:55:24.379Z,98063.66
2018-02-12T16:56:29.926Z,98062.84
2018-02-12T16:57:36.034Z,98063.73
2018-02-12T16:58:42.804Z,98065.52
2018-02-12T16:59:52.006Z,98067.34
2018-02-12T17:01:01.516Z,98068.76
2018-02-12T17:02:11.742Z,98094.28
2018-02-12T17:03:19.630Z,98113.45
2018-02-12T17:04:29.005Z,98122.69
2018-02-12T17:05:35.479Z,98013.33
2018-02-12T17:06:40.602Z,98125.87
2018-02-12T17:07:45.810Z,98120.66
2018-02-12T17:08:54.595Z,98121.31
2018-02-12T17:10:01.237Z,98120.30
2018-02-12T17:11:14.102Z,98122.31
2018-02-12T17:12:21.703Z,98123.51
2018-02-12T17:13:30.886Z,98129.09
2018-02-12T17:14:36.272Z,97841.20
2018-02-12T17:15:42.343Z,98131.26
2018-02-12T17:16:49.995Z,98132.54
2018-02-12T17:17:58.057Z,98129.75
2018-02-12T17:19:06.576Z,98035.85
2018-02-12T17:20:16.541Z,98134.17
2018-02-12T17:21:25.482Z,98134.84
2018-02-12T17:22:33.300Z,98142.41
2018-02-12T17:23:41.232Z,98141.20
2018-02-12T17:24:50.284Z,98140.49
2018-02-12T17:25:58.654Z,98130.31
2018-02-12T17:27:07.269Z,98101.73
2018-02-12T17:28:15.375Z,98088.42
2018-02-12T17:29:23.142Z,98094.89
2018-02-12T17:30:37.279Z,98092.03
2018-02-12T17:31:45.662Z,98094.43
2018-02-12T17:32:51.784Z,97898.20
2018-02-12T17:33:57.975Z,97994.55
2018-02-12T17:35:04.880Z,98091.81
2018-02-12T17:36:13.744Z,98096.08
2018-02-12T17:37:24.209Z,98092.84
2018-02-12T17:38:34.458Z,98005.70
2018-02-12T17:39:44.038Z,98100.06
2018-02-12T17:40:53.098Z,98111.05
2018-02-12T17:42:01.166Z,98105.52
2018-02-12T17:43:09.947Z,98104.08
2018-02-12T17:44:17.964Z,98110.95
2018-02-12T17:45:24.182Z,97983.77
2018-02-12T17:46:32.494Z,98117.97
2018-02-12T17:47:40.020Z,98111.58
2018-02-12T17:48:47.202Z,98109.16
2018-02-12T17:49:56.598Z,98104.30
2018-02-12T17:51:04.846Z,98112.80
2018-02-12T17:52:14.517Z,98114.16
2018-02-12T17:53:22.581Z,98115.91
2018-02-12T17:54:30.765Z,98120.33
2018-02-12T17:55:42.453Z,98115.80
2018-02-12T17:56:53.451Z,98124.63
2018-02-12T17:58:06.547Z,98120.89
2018-02-12T17:59:17.883Z,98119.41
2018-02-12T18:00:27.843Z,98122.95
2018-02-12T18:01:39.388Z,98118.59
2018-02-12T18:02:48.700Z,98121.83
2018-02-12T18:03:57.583Z,98098.61
